Terminal Aerodrome Forecast
Issued by NWS

Current Version | Previous Version | Graphics & Text | Print | Product List | Glossary On
Versions: 1 2 3 4 5 6 7 8 9 10 11 12 13 14 15 16 17 18
000
FTUS41 KRNK 241135
TAFLWB
TAF
KLWB 241135Z 2412/2512 13010G23KT 5SM -RA BR OVC015
      TEMPO 2413/2415 2SM -RA OVC007
     FM241500 09010KT P6SM OVC015
     FM242300 06005KT P6SM OVC008
     FM250100 VRB03KT P6SM OVC003
     FM251100 00000KT P6SM OVC015=

USA.gov is the U.S. government's official web portal to all federal, state and local government web resources and services.